createdAt,value
2023-02-02T00:01:28.692Z,96460.00
2023-02-02T00:06:34.940Z,96460.00
2023-02-02T00:11:44.334Z,96718.84
2023-02-02T00:17:03.275Z,96718.84
2023-02-02T00:22:18.276Z,96460.00
2023-02-02T00:27:25.226Z,96460.00
2023-02-02T03:09:02.581Z,98531.38
2023-02-02T03:14:09.678Z,98531.38
2023-02-02T03:19:13.320Z,98531.38
2023-02-02T03:24:18.265Z,98013.44
2023-02-02T03:29:21.954Z,97754.47
2023-02-02T03:34:25.577Z,97495.56
2023-02-02T03:39:30.547Z,97236.63
2023-02-02T03:44:34.117Z,97236.63
2023-02-02T03:49:37.689Z,97236.63
2023-02-02T03:54:42.786Z,96977.75
2023-02-02T03:59:46.462Z,96977.75
2023-02-02T04:04:49.982Z,96718.84
2023-02-02T04:09:54.961Z,96718.84
2023-02-02T04:14:58.770Z,96718.84
2023-02-02T04:20:02.500Z,97236.63
2023-02-02T04:25:08.450Z,96718.84
2023-02-02T04:30:13.106Z,96460.00
2023-02-02T04:35:16.764Z,96718.84
2023-02-02T04:40:21.907Z,96460.00
2023-02-02T04:45:25.839Z,96460.00
2023-02-02T04:50:30.066Z,96460.00
2023-02-02T04:55:39.131Z,96201.16
2023-02-02T05:00:42.749Z,96201.16
2023-02-02T05:05:46.413Z,96201.16
2023-02-02T05:10:51.339Z,95942.31
2023-02-02T05:15:55.420Z,95942.31
2023-02-02T05:21:00.893Z,95683.50
2023-02-02T05:26:06.244Z,95424.69
2023-02-02T05:31:10.596Z,95424.69
2023-02-02T05:36:14.778Z,95165.91
2023-02-02T05:41:19.773Z,94907.16
2023-02-02T05:46:23.360Z,94907.16
2023-02-02T05:51:31.018Z,94907.16
2023-02-02T05:56:35.952Z,94648.41
2023-02-02T06:01:39.748Z,94648.41
2023-02-02T06:06:44.034Z,94389.69
2023-02-02T06:11:49.024Z,94389.69
2023-02-02T06:16:52.724Z,94648.41
2023-02-02T06:21:56.437Z,94389.69
2023-02-02T06:27:01.463Z,94389.69
2023-02-02T06:32:05.566Z,94389.69
2023-02-02T06:37:09.219Z,94130.97
2023-02-02T06:42:21.412Z,93872.25
2023-02-02T06:47:26.971Z,94130.97
2023-02-02T06:52:30.662Z,94130.97
2023-02-02T06:57:35.653Z,94130.97
2023-02-02T07:02:39.409Z,94389.69
2023-02-02T07:07:43.849Z,94130.97
2023-02-02T07:12:48.910Z,94648.41
2023-02-02T07:17:52.715Z,94648.41
2023-02-02T07:22:56.421Z,94648.41
2023-02-02T07:28:01.439Z,94389.69
2023-02-02T07:33:05.114Z,94648.41
2023-02-02T07:38:08.774Z,94389.69
2023-02-02T07:43:13.853Z,94648.41
2023-02-02T07:48:17.523Z,94648.41
2023-02-02T07:53:21.680Z,94648.41
2023-02-02T07:59:13.507Z,94907.16
2023-02-02T08:04:21.433Z,94907.16
2023-02-02T08:09:25.237Z,95165.91
2023-02-02T08:14:30.639Z,95165.91
2023-02-02T08:19:34.412Z,95165.91
2023-02-02T08:24:40.681Z,95424.69
2023-02-02T08:29:46.213Z,95942.31
2023-02-02T08:34:52.010Z,96201.16
2023-02-02T08:39:55.760Z,96201.16
2023-02-02T08:46:01.758Z,96201.16
2023-02-02T08:50:24.673Z,96201.16
2023-02-02T08:55:28.431Z,96201.16
2023-02-02T09:00:33.434Z,96201.16
2023-02-02T09:05:38.593Z,95942.31
2023-02-02T09:10:42.297Z,96201.16
2023-02-02T09:15:47.227Z,95942.31
2023-02-02T09:20:51.315Z,95683.50
2023-02-02T09:25:58.863Z,95683.50
2023-02-02T09:36:16.653Z,95683.50
2023-02-02T09:41:48.032Z,96201.16
2023-02-02T09:47:02.880Z,95942.31
2023-02-02T09:52:14.593Z,96460.00
2023-02-02T09:57:23.620Z,96460.00
2023-02-02T10:02:33.346Z,96718.84
2023-02-02T10:07:42.657Z,96977.75
2023-02-02T10:12:53.394Z,97495.56
2023-02-02T10:18:06.054Z,97495.56
2023-02-02T10:23:20.314Z,97495.56
2023-02-02T11:04:38.885Z,98531.38
2023-02-02T11:09:44.028Z,98531.38
2023-02-02T11:14:53.767Z,98272.41
2023-02-02T11:19:59.494Z,98790.38
2023-02-02T11:25:06.788Z,98531.38
2023-02-02T11:30:26.643Z,98013.44
2023-02-02T11:35:31.930Z,98013.44
2023-02-02T11:40:44.870Z,97754.47
2023-02-02T11:45:55.763Z,97495.56
2023-02-02T11:51:02.436Z,97754.47
2023-02-02T11:56:10.427Z,97495.56
2023-02-02T12:01:26.799Z,97495.56
2023-02-02T12:06:37.124Z,97495.56
2023-02-02T12:11:51.296Z,97495.56
2023-02-02T12:17:03.245Z,97236.63
2023-02-02T12:27:44.866Z,97236.63
2023-02-02T12:33:11.997Z,97236.63
2023-02-02T12:38:27.823Z,96977.75
2023-02-02T12:43:41.205Z,96718.84
2023-02-02T12:49:04.392Z,96718.84
2023-02-02T12:54:34.564Z,96977.75
2023-02-02T13:00:07.684Z,96977.75
2023-02-02T13:05:34.348Z,97495.56
2023-02-02T13:10:42.264Z,97495.56
2023-02-02T13:15:50.903Z,96977.75
2023-02-02T13:20:59.718Z,96460.00
2023-02-02T13:26:07.474Z,96460.00
2023-02-02T13:31:21.304Z,96201.16
2023-02-02T13:36:29.863Z,96460.00
2023-02-02T13:41:33.625Z,96201.16
2023-02-02T13:46:46.722Z,95942.31
2023-02-02T13:51:55.684Z,96201.16
2023-02-02T13:57:12.031Z,96201.16
2023-02-02T14:02:27.032Z,95942.31
2023-02-02T14:07:41.682Z,95942.31
2023-02-02T14:12:45.676Z,95424.69
2023-02-02T14:17:56.881Z,94907.16
2023-02-02T14:23:00.559Z,94389.69
2023-02-02T14:28:05.968Z,94907.16
2023-02-02T14:39:25.988Z,94389.69
2023-02-02T14:44:30.756Z,93872.25
2023-02-02T14:49:36.622Z,93872.25
2023-02-02T14:54:43.655Z,93872.25
2023-02-02T14:59:48.926Z,93872.25
2023-02-02T15:04:52.778Z,93354.91
2023-02-02T15:09:58.286Z,93613.56
2023-02-02T15:15:20.470Z,93354.91
2023-02-02T15:20:31.181Z,93613.56
2023-02-02T15:25:41.987Z,93354.91
2023-02-02T15:30:51.604Z,92837.63
2023-02-02T15:35:58.629Z,92837.63
2023-02-02T15:41:09.014Z,91803.25
2023-02-02T15:46:15.096Z,91544.72
2023-02-02T15:51:22.228Z,91544.72
2023-02-02T15:56:31.989Z,91544.72
2023-02-02T16:01:47.590Z,91544.72
2023-02-02T16:06:51.895Z,91544.72
2023-02-02T16:11:57.295Z,91544.72
2023-02-02T16:17:13.347Z,91544.72
2023-02-02T16:22:20.891Z,91286.19
2023-02-02T16:27:32.803Z,91286.19
2023-02-02T16:32:39.194Z,91027.66
2023-02-02T16:37:42.876Z,91027.66
2023-02-02T16:42:47.906Z,90252.22
2023-02-02T16:47:54.921Z,90510.69
2023-02-02T16:53:02.324Z,89993.75
2023-02-02T16:58:07.468Z,89735.34
2023-02-02T17:03:13.043Z,89476.91
2023-02-02T17:08:27.706Z,88443.41
2023-02-02T17:13:42.213Z,88443.41
2023-02-02T17:18:46.038Z,88443.41
2023-02-02T17:23:51.808Z,88443.41
2023-02-02T17:29:00.250Z,88185.06
2023-02-02T17:34:04.337Z,87410.16
2023-02-02T17:39:09.982Z,88185.06
2023-02-02T17:44:16.690Z,87410.16
2023-02-02T17:49:20.567Z,87151.91
2023-02-02T17:54:24.343Z,86893.66
2023-02-02T17:59:29.343Z,86635.41
2023-02-02T18:04:32.996Z,86377.19
2023-02-02T18:09:44.292Z,86119.00
2023-02-02T18:14:54.501Z,86119.00
2023-02-02T18:20:03.087Z,85860.81
2023-02-02T18:25:07.266Z,86119.00
2023-02-02T18:30:16.515Z,85860.81
2023-02-02T18:35:27.368Z,86119.00
2023-02-02T18:40:33.634Z,86377.19
2023-02-02T18:45:42.800Z,86377.19
2023-02-02T18:50:59.797Z,86119.00
2023-02-02T18:56:08.046Z,85860.81
2023-02-02T19:01:15.417Z,86119.00
2023-02-02T19:06:37.452Z,85860.81
2023-02-02T19:11:55.001Z,86119.00
2023-02-02T19:17:11.727Z,86119.00
2023-02-02T19:22:20.568Z,86119.00
2023-02-02T19:27:36.507Z,86119.00
2023-02-02T19:32:42.512Z,86635.41
2023-02-02T19:37:48.605Z,86635.41
2023-02-02T19:43:06.689Z,86377.19
2023-02-02T19:48:17.881Z,86377.19
2023-02-02T19:53:42.514Z,86635.41
2023-02-02T19:58:58.809Z,86635.41
2023-02-02T20:04:14.421Z,86635.41
2023-02-02T20:09:20.553Z,86635.41
2023-02-02T20:14:33.281Z,86893.66
2023-02-02T20:19:42.729Z,86635.41
2023-02-02T20:24:48.756Z,86893.66
2023-02-02T20:29:54.932Z,87151.91
2023-02-02T20:35:00.932Z,87151.91
2023-02-02T20:40:24.639Z,86893.66
2023-02-02T20:45:44.372Z,86893.66
2023-02-02T20:50:49.727Z,87151.91
2023-02-02T20:56:01.004Z,86635.41
2023-02-02T21:01:06.066Z,86893.66
2023-02-02T21:06:15.540Z,87151.91
2023-02-02T21:11:23.171Z,87410.16
2023-02-02T21:16:27.343Z,87151.91
2023-02-02T21:21:32.423Z,87410.16
2023-02-02T21:26:36.191Z,86893.66
2023-02-02T21:31:40.001Z,87410.16
2023-02-02T21:36:47.378Z,87151.91
2023-02-02T21:42:00.504Z,86635.41
2023-02-02T21:47:04.366Z,86377.19
2023-02-02T21:52:32.528Z,86377.19
2023-02-02T21:57:49.961Z,86119.00
2023-02-02T22:03:09.403Z,86377.19
2023-02-02T22:08:21.979Z,86377.19
2023-02-02T22:13:26.726Z,86377.19
2023-02-02T22:18:30.791Z,85860.81
2023-02-02T22:23:37.888Z,85860.81
2023-02-02T22:28:41.583Z,85602.66
2023-02-02T22:33:45.158Z,86119.00
2023-02-02T22:38:50.095Z,85602.66
2023-02-02T22:43:53.687Z,85860.81
2023-02-02T22:48:57.298Z,85602.66
2023-02-02T22:54:02.300Z,85860.81
2023-02-02T22:59:06.074Z,86119.00
2023-02-02T23:04:09.687Z,85860.81
2023-02-02T23:09:14.700Z,85602.66
2023-02-02T23:14:18.325Z,85602.66
2023-02-02T23:19:21.881Z,84828.25
2023-02-02T23:24:26.967Z,85344.50
2023-02-02T23:29:30.590Z,85860.81
2023-02-02T23:34:34.337Z,85860.81
2023-02-02T23:39:39.304Z,85344.50
2023-02-02T23:44:42.905Z,85602.66
2023-02-02T23:49:46.957Z,85860.81
2023-02-02T23:54:52.906Z,85602.66
2023-02-02T23:59:56.586Z,85602.66
